createdAt,value
2023-03-15T00:00:36.063Z,18.90
2023-03-15T00:03:58.492Z,18.90
2023-03-15T00:07:25.780Z,18.90
2023-03-15T00:10:48.190Z,18.90
2023-03-15T00:14:11.181Z,18.90
2023-03-15T00:17:34.754Z,18.80
2023-03-15T00:20:57.396Z,18.80
2023-03-15T00:24:19.560Z,18.80
2023-03-15T00:27:41.743Z,18.80
2023-03-15T00:31:13.446Z,18.80
2023-03-15T00:34:35.746Z,18.80
2023-03-15T00:37:58.087Z,18.80
2023-03-15T00:41:21.063Z,18.80
2023-03-15T00:44:43.701Z,18.80
2023-03-15T00:48:06.138Z,18.80
2023-03-15T00:51:29.974Z,18.80
2023-03-15T00:54:53.225Z,18.80
2023-03-15T00:58:15.496Z,18.80
2023-03-15T01:01:38.587Z,18.70
2023-03-15T01:05:01.749Z,18.70
2023-03-15T01:08:24.260Z,18.70
2023-03-15T01:11:46.394Z,18.70
2023-03-15T01:15:09.423Z,18.70
2023-03-15T01:18:33.487Z,18.70
2023-03-15T01:21:55.704Z,18.70
2023-03-15T01:25:17.895Z,18.70
2023-03-15T01:28:41.329Z,18.60
2023-03-15T01:32:03.589Z,18.60
2023-03-15T01:35:26.197Z,18.60
2023-03-15T01:38:49.607Z,18.60
2023-03-15T01:42:16.910Z,18.60
2023-03-15T01:45:58.861Z,18.50
2023-03-15T01:49:40.387Z,18.60
2023-03-15T01:53:03.086Z,18.60
2023-03-15T01:56:26.218Z,18.60
2023-03-15T01:59:58.317Z,18.50
2023-03-15T02:03:23.153Z,18.50
2023-03-15T02:06:47.711Z,18.50
2023-03-15T02:10:11.051Z,18.50
2023-03-15T02:13:34.890Z,18.50
2023-03-15T02:17:01.347Z,18.50
2023-03-15T02:20:27.393Z,18.50
2023-03-15T02:23:54.657Z,18.50
2023-03-15T02:27:22.484Z,18.40
2023-03-15T02:30:45.298Z,18.50
2023-03-15T02:34:08.022Z,18.40
2023-03-15T02:37:30.792Z,18.40
2023-03-15T02:40:53.310Z,18.40
2023-03-15T02:44:34.773Z,18.40
2023-03-15T02:47:57.006Z,18.40
2023-03-15T02:51:27.734Z,18.40
2023-03-15T02:54:50.306Z,18.40
2023-03-15T02:58:12.516Z,18.40
2023-03-15T03:01:37.295Z,18.40
2023-03-15T03:04:59.663Z,18.40
2023-03-15T03:08:21.849Z,18.40
2023-03-15T03:11:43.986Z,18.40
2023-03-15T03:15:07.249Z,18.40
2023-03-15T03:18:30.019Z,18.30
2023-03-15T03:21:53.527Z,18.30
2023-03-15T03:25:16.075Z,18.30
2023-03-15T03:28:38.374Z,18.30
2023-03-15T03:32:00.998Z,18.30
2023-03-15T03:35:23.336Z,18.30
2023-03-15T03:38:46.338Z,18.30
2023-03-15T03:42:08.951Z,18.30
2023-03-15T03:45:31.140Z,18.30
2023-03-15T03:48:55.076Z,18.30
2023-03-15T03:52:17.601Z,18.30
2023-03-15T03:55:44.372Z,18.30
2023-03-15T03:59:11.737Z,18.20
2023-03-15T04:02:45.722Z,18.30
2023-03-15T04:06:10.357Z,18.20
2023-03-15T04:09:37.722Z,18.20
2023-03-15T04:13:01.251Z,18.20
2023-03-15T04:16:24.748Z,18.20
2023-03-15T04:20:02.154Z,18.20
2023-03-15T04:23:26.119Z,18.20
2023-03-15T04:26:57.938Z,18.20
2023-03-15T04:30:42.723Z,18.20
2023-03-15T04:34:28.317Z,18.20
2023-03-15T04:38:26.696Z,18.20
2023-03-15T04:41:55.172Z,18.20
2023-03-15T04:45:27.471Z,18.20
2023-03-15T04:49:08.470Z,18.20
2023-03-15T04:52:51.125Z,18.20
2023-03-15T04:56:42.740Z,18.10
2023-03-15T05:00:14.371Z,18.20
2023-03-15T05:03:59.641Z,18.10
2023-03-15T05:07:56.852Z,18.10
2023-03-15T05:11:46.446Z,18.10
2023-03-15T05:15:27.038Z,18.10
2023-03-15T05:19:21.854Z,18.20
2023-03-15T05:23:15.032Z,18.20
2023-03-15T05:27:04.487Z,18.20
2023-03-15T05:30:39.741Z,18.30
2023-03-15T05:34:12.251Z,18.30
2023-03-15T05:37:55.693Z,18.30
2023-03-15T05:41:46.829Z,18.30
2023-03-15T05:45:32.822Z,18.30
2023-03-15T05:49:20.689Z,18.40
2023-03-15T05:52:49.834Z,18.40
2023-03-15T05:56:19.710Z,18.50
2023-03-15T06:00:11.370Z,18.50
2023-03-15T06:03:36.400Z,18.50
2023-03-15T06:07:06.978Z,18.60
2023-03-15T06:10:29.603Z,18.60
2023-03-15T06:13:54.921Z,18.60
2023-03-15T06:17:40.534Z,18.70
2023-03-15T06:21:02.869Z,18.70
2023-03-15T06:24:25.188Z,18.70
2023-03-15T06:27:48.242Z,18.70
2023-03-15T06:31:11.584Z,18.70
2023-03-15T06:34:43.198Z,18.80
2023-03-15T06:38:05.948Z,18.80
2023-03-15T06:41:28.097Z,18.90
2023-03-15T06:44:58.693Z,18.90
2023-03-15T06:48:20.958Z,18.90
2023-03-15T06:51:45.176Z,19.00
2023-03-15T06:55:07.588Z,19.00
2023-03-15T06:58:29.946Z,19.00
2023-03-15T07:01:52.185Z,19.10
2023-03-15T07:05:14.467Z,19.20
2023-03-15T07:08:36.702Z,19.10
2023-03-15T07:11:58.835Z,19.10
2023-03-15T07:15:20.977Z,19.10
2023-03-15T07:18:43.212Z,19.10
2023-03-15T07:22:05.292Z,19.20
2023-03-15T07:25:27.490Z,19.20
2023-03-15T07:28:49.642Z,19.10
2023-03-15T07:32:11.942Z,19.20
2023-03-15T07:35:34.318Z,19.30
2023-03-15T07:38:56.613Z,19.30
2023-03-15T07:42:18.733Z,19.20
2023-03-15T07:45:46.023Z,19.10
2023-03-15T07:49:08.221Z,19.10
2023-03-15T07:52:30.697Z,19.10
2023-03-15T07:55:52.946Z,19.10
2023-03-15T07:59:15.638Z,19.10
2023-03-15T08:02:38.031Z,19.20
2023-03-15T08:06:00.246Z,19.30
2023-03-15T08:09:22.715Z,19.30
2023-03-15T08:12:45.201Z,19.50
2023-03-15T08:16:07.497Z,19.50
2023-03-15T08:19:29.721Z,19.50
2023-03-15T08:22:51.844Z,19.60
2023-03-15T08:26:14.049Z,19.60
2023-03-15T08:29:36.162Z,19.60
2023-03-15T08:32:58.465Z,19.70
2023-03-15T08:36:21.005Z,19.70
2023-03-15T08:39:43.799Z,19.80
2023-03-15T08:43:05.991Z,19.80
2023-03-15T08:46:28.412Z,19.90
2023-03-15T08:49:53.149Z,19.90
2023-03-15T08:53:15.464Z,19.90
2023-03-15T08:56:37.571Z,19.70
2023-03-15T09:00:01.610Z,19.60
2023-03-15T09:03:23.881Z,19.50
2023-03-15T09:06:46.406Z,19.50
2023-03-15T09:10:09.496Z,19.40
2023-03-15T09:13:31.720Z,19.40
2023-03-15T09:16:54.022Z,19.50
2023-03-15T09:20:16.894Z,19.40
2023-03-15T09:23:41.994Z,19.40
2023-03-15T09:27:04.382Z,19.40
2023-03-15T09:30:26.796Z,19.40
2023-03-15T09:33:49.817Z,19.40
2023-03-15T09:37:11.930Z,19.30
2023-03-15T09:40:35.612Z,19.40
2023-03-15T09:44:01.120Z,19.40
2023-03-15T09:47:26.226Z,19.40
2023-03-15T09:50:51.330Z,19.40
2023-03-15T09:54:20.783Z,19.40
2023-03-15T09:57:42.906Z,19.40
2023-03-15T10:01:11.344Z,19.40
2023-03-15T10:04:41.953Z,19.30
2023-03-15T10:08:09.084Z,19.20
2023-03-15T10:11:31.267Z,19.10
2023-03-15T10:14:53.411Z,19.10
2023-03-15T10:18:26.892Z,19.10
2023-03-15T10:21:56.271Z,19.10
2023-03-15T10:25:18.481Z,19.20
2023-03-15T10:28:40.846Z,19.10
2023-03-15T10:32:05.248Z,19.00
2023-03-15T10:35:27.504Z,18.90
2023-03-15T10:38:50.476Z,18.90
2023-03-15T10:42:32.357Z,19.00
2023-03-15T10:46:01.938Z,19.10
2023-03-15T10:49:32.494Z,19.20
2023-03-15T10:52:55.466Z,19.30
2023-03-15T10:56:22.082Z,19.20
2023-03-15T10:59:54.791Z,19.20
2023-03-15T11:03:18.466Z,19.20
2023-03-15T11:06:42.644Z,19.20
2023-03-15T11:10:07.736Z,19.30
2023-03-15T11:13:34.219Z,19.50
2023-03-15T11:16:58.390Z,19.60
2023-03-15T11:20:30.711Z,19.60
2023-03-15T11:23:54.480Z,19.70
2023-03-15T11:27:17.801Z,19.70
2023-03-15T11:30:41.140Z,19.70
2023-03-15T11:34:06.284Z,19.80
2023-03-15T11:37:32.822Z,19.90
2023-03-15T11:40:57.004Z,19.90
2023-03-15T11:44:34.461Z,19.80
2023-03-15T11:47:58.240Z,19.80
2023-03-15T11:51:20.766Z,19.80
2023-03-15T11:54:43.661Z,19.90
2023-03-15T11:58:24.790Z,19.90
2023-03-15T12:01:51.612Z,19.80
2023-03-15T12:05:33.740Z,19.80
2023-03-15T12:08:55.895Z,19.80
2023-03-15T12:12:23.803Z,19.80
2023-03-15T12:15:46.755Z,19.90
2023-03-15T12:19:10.859Z,19.90
2023-03-15T12:22:33.688Z,19.90
2023-03-15T12:25:57.211Z,19.90
2023-03-15T12:29:29.272Z,19.90
2023-03-15T12:32:55.920Z,19.90
2023-03-15T12:36:38.377Z,19.90
2023-03-15T12:40:02.437Z,19.90
2023-03-15T12:43:52.244Z,19.90
2023-03-15T12:47:14.456Z,19.90
2023-03-15T12:50:36.649Z,19.80
2023-03-15T12:53:59.073Z,19.90
2023-03-15T12:57:23.169Z,19.80
2023-03-15T13:00:46.271Z,19.80
2023-03-15T13:04:09.687Z,19.80
2023-03-15T13:07:52.549Z,19.80
2023-03-15T13:11:17.793Z,19.80
2023-03-15T13:14:43.160Z,19.70
2023-03-15T13:18:18.500Z,19.70
2023-03-15T13:21:52.612Z,19.70
2023-03-15T13:25:17.471Z,19.70
2023-03-15T13:28:42.453Z,19.70
2023-03-15T13:32:14.214Z,19.70
2023-03-15T13:35:56.519Z,19.70
2023-03-15T13:39:18.666Z,19.70
2023-03-15T13:42:41.416Z,19.60
2023-03-15T13:46:03.923Z,19.60
2023-03-15T13:49:30.438Z,19.50
2023-03-15T13:52:54.741Z,19.40
2023-03-15T13:56:48.925Z,19.30
2023-03-15T14:00:17.746Z,19.20
2023-03-15T14:03:43.314Z,19.20
2023-03-15T14:07:15.604Z,19.10
2023-03-15T14:10:38.860Z,19.10
2023-03-15T14:14:02.974Z,19.10
2023-03-15T14:17:25.137Z,19.10
2023-03-15T14:20:53.375Z,19.10
2023-03-15T14:24:17.187Z,19.10
2023-03-15T14:27:39.419Z,19.10
2023-03-15T14:31:02.598Z,19.10
2023-03-15T14:34:24.814Z,19.10
2023-03-15T14:37:46.995Z,19.00
2023-03-15T14:41:27.466Z,19.00
2023-03-15T14:44:49.744Z,19.10
2023-03-15T14:48:13.499Z,19.00
2023-03-15T14:51:35.720Z,19.00
2023-03-15T14:54:58.887Z,19.00
2023-03-15T14:58:21.732Z,19.00
2023-03-15T15:01:46.989Z,19.00
2023-03-15T15:05:18.306Z,19.00
2023-03-15T15:08:42.550Z,19.00
2023-03-15T15:12:05.033Z,19.00
2023-03-15T15:15:27.207Z,19.00
2023-03-15T15:18:49.516Z,19.00
2023-03-15T15:22:11.870Z,19.00
2023-03-15T15:25:35.566Z,19.20
2023-03-15T15:28:57.948Z,19.30
2023-03-15T15:32:20.152Z,19.20
2023-03-15T15:35:42.470Z,19.30
2023-03-15T15:39:10.524Z,19.20
2023-03-15T15:42:32.654Z,19.20
2023-03-15T15:45:55.075Z,19.20
2023-03-15T15:49:18.126Z,19.20
2023-03-15T15:52:41.724Z,19.20
2023-03-15T15:56:03.929Z,19.20
2023-03-15T15:59:26.098Z,19.30
2023-03-15T16:02:48.250Z,19.20
2023-03-15T16:06:16.198Z,19.20
2023-03-15T16:09:40.043Z,19.20
2023-03-15T16:13:03.254Z,19.20
2023-03-15T16:16:25.351Z,19.20
2023-03-15T16:19:47.759Z,19.10
2023-03-15T16:23:16.425Z,18.90
2023-03-15T16:26:39.238Z,18.80
2023-03-15T16:30:02.800Z,18.80
2023-03-15T16:33:24.986Z,18.90
2023-03-15T16:36:49.552Z,19.10
2023-03-15T16:40:21.426Z,19.20
2023-03-15T16:43:44.106Z,19.30
2023-03-15T16:47:07.486Z,19.30
2023-03-15T16:50:29.704Z,19.30
2023-03-15T16:53:59.637Z,19.30
2023-03-15T16:57:27.295Z,19.40
2023-03-15T17:00:49.453Z,19.30
2023-03-15T17:04:12.351Z,19.30
2023-03-15T17:07:36.209Z,19.30
2023-03-15T17:10:58.876Z,19.30
2023-03-15T17:14:31.661Z,19.30
2023-03-15T17:17:54.124Z,19.30
2023-03-15T17:21:18.255Z,19.30
2023-03-15T17:24:40.499Z,19.30
2023-03-15T17:28:02.929Z,19.20
2023-03-15T17:31:25.841Z,19.20
2023-03-15T17:34:48.258Z,19.20
2023-03-15T17:38:15.536Z,19.20
2023-03-15T17:41:41.063Z,19.20
2023-03-15T17:45:04.750Z,19.20
2023-03-15T17:48:27.002Z,19.20
2023-03-15T17:51:49.250Z,19.20
2023-03-15T17:55:15.418Z,19.20
2023-03-15T17:58:37.610Z,19.20
2023-03-15T18:01:59.814Z,19.10
2023-03-15T18:05:23.489Z,19.10
2023-03-15T18:08:46.094Z,19.20
2023-03-15T18:12:10.098Z,19.10
2023-03-15T18:15:32.580Z,19.20
2023-03-15T18:18:54.738Z,19.10
2023-03-15T18:22:17.056Z,19.10
2023-03-15T18:25:39.291Z,19.10
2023-03-15T18:29:01.677Z,19.20
2023-03-15T18:32:23.815Z,19.20
2023-03-15T18:35:46.037Z,19.20
2023-03-15T18:39:08.266Z,19.20
2023-03-15T18:42:30.434Z,19.30
2023-03-15T18:45:52.636Z,19.30
2023-03-15T18:49:14.919Z,19.30
2023-03-15T18:52:37.110Z,19.30
2023-03-15T18:55:59.331Z,19.30
2023-03-15T18:59:23.175Z,19.40
2023-03-15T19:02:46.466Z,19.40
2023-03-15T19:06:09.915Z,19.40
2023-03-15T19:09:32.094Z,19.40
2023-03-15T19:12:54.582Z,19.40
2023-03-15T19:16:18.126Z,19.40
2023-03-15T19:19:40.476Z,19.40
2023-03-15T19:23:02.666Z,19.40
2023-03-15T19:26:24.866Z,19.40
2023-03-15T19:29:47.017Z,19.40
2023-03-15T19:33:09.308Z,19.40
2023-03-15T19:36:32.152Z,19.40
2023-03-15T19:39:54.514Z,19.40
2023-03-15T19:43:18.500Z,19.30
2023-03-15T19:46:41.010Z,19.30
2023-03-15T19:50:03.525Z,19.30
2023-03-15T19:53:25.772Z,19.30
2023-03-15T19:56:48.737Z,19.20
2023-03-15T20:00:13.040Z,19.30
2023-03-15T20:03:35.271Z,19.30
2023-03-15T20:06:57.490Z,19.30
2023-03-15T20:10:20.590Z,19.30
2023-03-15T20:13:43.109Z,19.40
2023-03-15T20:17:05.472Z,19.30
2023-03-15T20:20:28.426Z,19.10
2023-03-15T20:23:51.202Z,18.90
2023-03-15T20:27:13.514Z,18.90
2023-03-15T20:30:38.281Z,19.10
2023-03-15T20:34:00.495Z,19.20
2023-03-15T20:37:25.955Z,19.20
2023-03-15T20:40:53.490Z,19.30
2023-03-15T20:44:15.700Z,19.30
2023-03-15T20:47:38.202Z,19.30
2023-03-15T20:51:03.885Z,19.30
2023-03-15T20:54:25.988Z,19.30
2023-03-15T20:57:48.167Z,19.30
2023-03-15T21:01:13.039Z,19.30
2023-03-15T21:04:35.309Z,19.30
2023-03-15T21:07:57.630Z,19.30
2023-03-15T21:11:19.932Z,19.30
2023-03-15T21:14:42.137Z,19.30
2023-03-15T21:18:04.398Z,19.30
2023-03-15T21:21:26.593Z,19.30
2023-03-15T21:24:55.503Z,19.30
2023-03-15T21:28:18.291Z,19.30
2023-03-15T21:31:40.620Z,19.30
2023-03-15T21:35:05.018Z,19.30
2023-03-15T21:38:28.019Z,19.30
2023-03-15T21:41:50.194Z,19.30
2023-03-15T21:45:12.425Z,19.30
2023-03-15T21:48:35.495Z,19.30
2023-03-15T21:51:57.697Z,19.30
2023-03-15T21:55:20.012Z,19.30
2023-03-15T21:58:42.313Z,19.30
2023-03-15T22:02:04.477Z,19.30
2023-03-15T22:05:26.669Z,19.30
2023-03-15T22:08:49.410Z,19.10
2023-03-15T22:12:13.479Z,19.20
2023-03-15T22:15:37.236Z,19.30
2023-03-15T22:18:59.431Z,19.30
2023-03-15T22:22:21.641Z,19.30
2023-03-15T22:25:43.903Z,19.30
2023-03-15T22:29:06.053Z,19.20
2023-03-15T22:32:28.260Z,19.20
2023-03-15T22:35:57.563Z,19.20
2023-03-15T22:39:19.844Z,19.20
2023-03-15T22:42:42.392Z,19.20
2023-03-15T22:46:04.720Z,19.10
2023-03-15T22:49:26.935Z,19.20
2023-03-15T22:52:51.818Z,19.20
2023-03-15T22:56:14.512Z,19.20
2023-03-15T22:59:37.019Z,19.10
2023-03-15T23:02:59.159Z,19.10
2023-03-15T23:06:22.186Z,19.10
2023-03-15T23:09:44.542Z,19.10
2023-03-15T23:13:06.776Z,19.10
2023-03-15T23:16:29.240Z,19.10
2023-03-15T23:19:51.447Z,19.10
2023-03-15T23:23:13.817Z,19.10
2023-03-15T23:26:37.240Z,19.10
2023-03-15T23:29:59.575Z,19.10
2023-03-15T23:33:21.808Z,19.10
2023-03-15T23:36:45.334Z,19.10
2023-03-15T23:40:15.743Z,19.00
2023-03-15T23:43:38.275Z,19.10
2023-03-15T23:47:02.928Z,19.10
2023-03-15T23:50:26.231Z,19.10
2023-03-15T23:53:48.962Z,19.10
2023-03-15T23:57:12.811Z,19.10
